Time;durP1;ratioP1;P1;durP2;ratioP2;P2;SDS_P1;SDS_P2;PMS_P1;PMS_P2;Temp;Humidity;BMP_temperature;BMP_pressure;BME280_temperature;BME280_humidity;BME280_pressure;Samples;Min_cycle;Max_cycle;Signal;HPM_P1;HPM_P2
2022/01/12 00:02:22;;;;;;;5.13;3.87;;;;;;;;;;5018861;28;20565;-67
2022/01/12 00:04:54;;;;;;;5.60;4.10;;;;;;;;;;5026911;28;20206;-68
2022/01/12 00:07:24;;;;;;;4.33;3.93;;;;;;;;;;5025329;28;21594;-67
2022/01/12 00:09:54;;;;;;;4.77;3.93;;;;;;;;;;4995253;28;20206;-67
2022/01/12 00:12:26;;;;;;;4.67;3.70;;;;;;;;;;5023274;28;20253;-67
2022/01/12 00:14:57;;;;;;;6.10;4.00;;;;;;;;;;5024399;28;20238;-67
2022/01/12 00:17:26;;;;;;;6.03;3.70;;;;;;;;;;5026922;28;20209;-68
2022/01/12 00:19:59;;;;;;;5.83;3.90;;;;;;;;;;5029606;28;20687;-67
2022/01/12 00:22:32;;;;;;;4.77;3.80;;;;;;;;;;5024895;28;20195;-68
2022/01/12 00:25:22;;;;;;;4.83;3.80;;;;;;;;;;5017882;28;20580;-67
2022/01/12 00:33:35;;;;;;;5.47;3.73;;;;;;;;;;5036892;28;20211;-68
2022/01/12 00:36:07;;;;;;;5.47;3.93;;;;;;;;;;5004034;28;20207;-67
2022/01/12 00:38:39;;;;;;;4.47;3.70;;;;;;;;;;5009653;28;20214;-68
2022/01/12 00:41:09;;;;;;;5.73;4.00;;;;;;;;;;5014420;28;20210;-67
2022/01/12 00:43:42;;;;;;;5.17;3.80;;;;;;;;;;5024489;28;20246;-67
2022/01/12 00:46:16;;;;;;;4.50;3.90;;;;;;;;;;5006342;28;20199;-67
2022/01/12 00:48:48;;;;;;;5.53;3.93;;;;;;;;;;5022919;28;20227;-66
2022/01/12 00:51:21;;;;;;;4.57;4.07;;;;;;;;;;5011646;28;20203;-67
2022/01/12 00:53:59;;;;;;;4.20;3.60;;;;;;;;;;5007608;28;20249;-67
2022/01/12 00:56:31;;;;;;;6.53;4.00;;;;;;;;;;5007434;28;20214;-67
2022/01/12 00:59:00;;;;;;;6.30;4.03;;;;;;;;;;5024900;28;20199;-67
2022/01/12 01:01:37;;;;;;;5.13;3.80;;;;;;;;;;5024973;28;20357;-67
2022/01/12 01:04:09;;;;;;;5.10;3.77;;;;;;;;;;5024887;28;20218;-67
2022/01/12 01:06:40;;;;;;;4.43;3.87;;;;;;;;;;5023237;28;20207;-67
2022/01/12 01:09:10;;;;;;;5.67;3.87;;;;;;;;;;4997902;28;20202;-67
2022/01/12 01:11:41;;;;;;;3.80;3.50;;;;;;;;;;5023247;28;20630;-67
2022/01/12 01:14:21;;;;;;;3.97;3.47;;;;;;;;;;5007023;28;20227;-67
2022/01/12 01:17:06;;;;;;;4.20;3.80;;;;;;;;;;5006933;28;20211;-67
2022/01/12 01:25:33;;;;;;;5.20;4.30;;;;;;;;;;4988945;28;20222;-67
2022/01/12 01:28:02;;;;;;;5.23;3.60;;;;;;;;;;5008151;28;20191;-67
2022/01/12 01:30:31;;;;;;;5.20;3.83;;;;;;;;;;4990070;28;20202;-67
2022/01/12 01:33:22;;;;;;;6.60;3.50;;;;;;;;;;4993069;28;20764;-67
2022/01/12 01:36:15;;;;;;;4.13;3.47;;;;;;;;;;4990427;28;20237;-67
2022/01/12 01:39:05;;;;;;;7.17;3.90;;;;;;;;;;5005256;28;20227;-67
2022/01/12 01:41:38;;;;;;;4.70;4.00;;;;;;;;;;4991544;28;20284;-68
2022/01/12 01:55:28;;;;;;;4.87;4.20;;;;;;;;;;5004229;28;20662;-68
2022/01/12 01:58:00;;;;;;;4.67;3.57;;;;;;;;;;4993393;28;20196;-67
2022/01/12 02:00:34;;;;;;;4.97;4.10;;;;;;;;;;5004408;28;20588;-68
2022/01/12 02:03:26;;;;;;;4.90;4.10;;;;;;;;;;5005798;28;20657;-67
2022/01/12 02:06:15;;;;;;;4.57;3.90;;;;;;;;;;5007861;28;20853;-68
2022/01/12 02:08:49;;;;;;;5.27;4.27;;;;;;;;;;4989600;28;20286;-67
2022/01/12 02:11:26;;;;;;;4.93;4.13;;;;;;;;;;5001713;28;20199;-67
2022/01/12 02:13:57;;;;;;;5.33;4.40;;;;;;;;;;4987202;28;20223;-67
2022/01/12 02:17:05;;;;;;;6.23;4.00;;;;;;;;;;5032013;28;20206;-67
2022/01/12 02:20:14;;;;;;;5.70;3.87;;;;;;;;;;5029712;28;20226;-67
2022/01/12 02:37:17;;;;;;;5.67;3.90;;;;;;;;;;5022493;28;20199;-67
2022/01/12 02:39:57;;;;;;;5.90;4.20;;;;;;;;;;5031535;28;20211;-66
2022/01/12 02:42:27;;;;;;;5.37;4.43;;;;;;;;;;5028002;28;20202;-67
2022/01/12 02:50:57;;;;;;;5.27;4.40;;;;;;;;;;5017619;28;20186;-67
2022/01/12 02:53:40;;;;;;;4.83;4.00;;;;;;;;;;5020685;28;20222;-67
2022/01/12 02:56:29;;;;;;;4.77;3.83;;;;;;;;;;5026941;28;20191;-67
2022/01/12 02:59:01;;;;;;;6.40;3.77;;;;;;;;;;5026789;28;20279;-67
2022/01/12 03:05:30;;;;;;;5.57;4.53;;;;;;;;;;4989625;28;20217;-67
2022/01/12 03:07:53;;;;;;;4.63;4.10;;;;;;;;;;4986743;28;20651;-67
2022/01/12 03:10:22;;;;;;;5.50;4.00;;;;;;;;;;4998994;28;20677;-68
2022/01/12 03:12:54;;;;;;;4.43;3.80;;;;;;;;;;4985669;28;20241;-67
2022/01/12 03:15:22;;;;;;;4.93;3.67;;;;;;;;;;4966129;28;20760;-67
2022/01/12 03:17:52;;;;;;;4.10;3.70;;;;;;;;;;4983713;28;20201;-67
2022/01/12 03:20:24;;;;;;;5.33;3.80;;;;;;;;;;4984833;28;20259;-67
2022/01/12 03:22:54;;;;;;;5.17;4.00;;;;;;;;;;4984673;28;20216;-67
2022/01/12 03:25:24;;;;;;;5.83;4.03;;;;;;;;;;4981477;28;20196;-67
2022/01/12 03:28:03;;;;;;;4.10;3.50;;;;;;;;;;4985537;28;20212;-67
2022/01/12 03:31:23;;;;;;;4.33;3.83;;;;;;;;;;4969674;28;20200;-67
2022/01/12 03:34:09;;;;;;;5.70;4.00;;;;;;;;;;4993467;28;20621;-67
2022/01/12 03:39:19;;;;;;;5.83;3.70;;;;;;;;;;5008729;28;20675;-67
2022/01/12 03:41:48;;;;;;;4.53;3.70;;;;;;;;;;5004870;28;20220;-67
2022/01/12 03:44:19;;;;;;;6.57;4.10;;;;;;;;;;5013596;28;20198;-67
2022/01/12 03:46:51;;;;;;;5.03;3.73;;;;;;;;;;5009963;28;20189;-67
2022/01/12 03:49:22;;;;;;;5.67;3.83;;;;;;;;;;5019775;28;20211;-67
2022/01/12 03:51:55;;;;;;;6.17;3.97;;;;;;;;;;5009952;28;20191;-68
2022/01/12 03:54:25;;;;;;;5.10;4.10;;;;;;;;;;5007223;28;20617;-67
2022/01/12 03:56:53;;;;;;;5.10;3.80;;;;;;;;;;5012070;28;20207;-67
2022/01/12 03:59:25;;;;;;;5.37;3.50;;;;;;;;;;5009537;28;20206;-67
2022/01/12 04:01:54;;;;;;;4.93;4.30;;;;;;;;;;5011024;28;20204;-67
2022/01/12 04:04:36;;;;;;;5.07;3.63;;;;;;;;;;5007339;28;20213;-67
2022/01/12 04:09:58;;;;;;;5.27;4.00;;;;;;;;;;5012869;28;20228;-67
2022/01/12 04:12:29;;;;;;;6.23;4.23;;;;;;;;;;5006159;28;20224;-67
2022/01/12 04:14:58;;;;;;;4.53;3.83;;;;;;;;;;5010498;28;20235;-67
2022/01/12 04:17:33;;;;;;;6.47;4.17;;;;;;;;;;5012530;28;20199;-67
2022/01/12 04:20:07;;;;;;;5.73;4.23;;;;;;;;;;5010664;28;20204;-67
2022/01/12 04:25:33;;;;;;;4.50;3.47;;;;;;;;;;5006095;28;20200;-67
2022/01/12 04:28:01;;;;;;;4.60;3.90;;;;;;;;;;5015895;28;20676;-67
2022/01/12 04:30:37;;;;;;;4.43;3.93;;;;;;;;;;5005503;28;20231;-67
2022/01/12 04:33:19;;;;;;;5.80;3.60;;;;;;;;;;5002820;28;20951;-67
2022/01/12 04:35:54;;;;;;;5.63;4.17;;;;;;;;;;5004627;28;20196;-68
2022/01/12 04:38:33;;;;;;;4.77;3.43;;;;;;;;;;5002463;28;20299;-67
2022/01/12 04:41:09;;;;;;;4.30;3.67;;;;;;;;;;5016112;28;20194;-67
2022/01/12 04:43:50;;;;;;;4.60;3.77;;;;;;;;;;4996958;28;20709;-67
2022/01/12 04:46:50;;;;;;;4.63;4.00;;;;;;;;;;5005309;28;20226;-66
2022/01/12 04:50:07;;;;;;;5.23;3.40;;;;;;;;;;5006013;28;20230;-66
2022/01/12 04:52:16;;;;;;;5.80;4.10;;;;;;;;;;5003808;28;20219;-66
2022/01/12 04:54:54;;;;;;;6.87;4.13;;;;;;;;;;5011353;28;20210;-67
2022/01/12 04:57:25;;;;;;;5.23;3.80;;;;;;;;;;5004341;28;20689;-67
2022/01/12 05:00:09;;;;;;;6.63;4.10;;;;;;;;;;5008415;28;20192;-66
2022/01/12 05:13:44;;;;;;;6.83;4.03;;;;;;;;;;5003144;28;20232;-67
2022/01/12 05:16:21;;;;;;;4.20;3.73;;;;;;;;;;5009620;28;20202;-66
2022/01/12 05:18:52;;;;;;;6.13;4.00;;;;;;;;;;5010566;28;20634;-67
2022/01/12 05:21:26;;;;;;;6.37;4.37;;;;;;;;;;4989953;28;20204;-66
2022/01/12 05:23:55;;;;;;;5.47;4.00;;;;;;;;;;5007445;28;20205;-66
2022/01/12 05:26:25;;;;;;;5.53;4.43;;;;;;;;;;5018798;28;20212;-66
2022/01/12 05:28:57;;;;;;;5.30;4.30;;;;;;;;;;5005814;28;20188;-66
2022/01/12 05:31:28;;;;;;;6.17;4.50;;;;;;;;;;5008226;28;20191;-67
2022/01/12 05:34:04;;;;;;;5.23;4.50;;;;;;;;;;5010093;28;20221;-66
2022/01/12 05:36:35;;;;;;;4.90;4.30;;;;;;;;;;5007623;28;20204;-66
2022/01/12 05:39:03;;;;;;;4.30;3.87;;;;;;;;;;5017433;28;20200;-67
2022/01/12 05:41:32;;;;;;;6.47;5.00;;;;;;;;;;5006793;28;20215;-66
2022/01/12 05:44:06;;;;;;;4.93;4.10;;;;;;;;;;5012493;28;20196;-66
2022/01/12 05:46:39;;;;;;;4.73;4.30;;;;;;;;;;5007054;28;20203;-66
2022/01/12 05:52:00;;;;;;;5.30;4.20;;;;;;;;;;5005763;28;20218;-66
2022/01/12 05:54:31;;;;;;;8.20;4.80;;;;;;;;;;4997384;28;20837;-66
2022/01/12 05:57:02;;;;;;;5.40;4.80;;;;;;;;;;5003677;28;20641;-66
2022/01/12 05:59:31;;;;;;;4.50;4.10;;;;;;;;;;5011007;28;20675;-66
2022/01/12 06:02:07;;;;;;;5.87;4.20;;;;;;;;;;5002080;28;20223;-66
2022/01/12 06:04:38;;;;;;;5.27;4.67;;;;;;;;;;5011271;28;20199;-66
2022/01/12 06:07:11;;;;;;;5.50;4.70;;;;;;;;;;5006064;28;20211;-66
2022/01/12 06:09:42;;;;;;;5.50;4.90;;;;;;;;;;5001719;28;20213;-66
2022/01/12 06:12:15;;;;;;;5.33;4.60;;;;;;;;;;5009236;28;20705;-66
2022/01/12 06:14:44;;;;;;;5.97;4.80;;;;;;;;;;5014862;28;20857;-66
2022/01/12 06:17:14;;;;;;;5.23;4.30;;;;;;;;;;5026456;28;20213;-66
2022/01/12 06:19:42;;;;;;;5.37;4.10;;;;;;;;;;5027970;28;20203;-67
2022/01/12 06:22:14;;;;;;;4.50;4.10;;;;;;;;;;5027872;28;20222;-66
2022/01/12 06:24:45;;;;;;;4.43;4.03;;;;;;;;;;5035916;28;20210;-67
2022/01/12 06:27:16;;;;;;;5.13;4.47;;;;;;;;;;5024721;28;20221;-67
2022/01/12 06:32:59;;;;;;;4.57;4.17;;;;;;;;;;4966944;28;20247;-67
2022/01/12 06:35:27;;;;;;;6.43;5.13;;;;;;;;;;4975804;28;20230;-67
2022/01/12 06:37:58;;;;;;;5.23;4.53;;;;;;;;;;5007769;28;20268;-67
2022/01/12 06:40:28;;;;;;;4.83;4.43;;;;;;;;;;5026394;28;20227;-67
2022/01/12 06:42:55;;;;;;;5.70;4.80;;;;;;;;;;5027204;28;20199;-67
2022/01/12 06:45:28;;;;;;;5.93;5.27;;;;;;;;;;5019708;28;20215;-67
2022/01/12 06:47:59;;;;;;;6.73;5.40;;;;;;;;;;5026633;28;20223;-67
2022/01/12 06:50:26;;;;;;;7.43;5.30;;;;;;;;;;5005809;28;20301;-67
2022/01/12 06:52:58;;;;;;;7.47;4.93;;;;;;;;;;5027362;28;20229;-67
2022/01/12 06:55:27;;;;;;;9.67;5.47;;;;;;;;;;5026986;28;20207;-67
2022/01/12 06:58:07;;;;;;;6.83;4.60;;;;;;;;;;5005635;28;20194;-67
2022/01/12 07:00:42;;;;;;;6.63;5.27;;;;;;;;;;5026190;28;20187;-67
2022/01/12 07:03:12;;;;;;;6.10;5.37;;;;;;;;;;5021668;28;20218;-67
2022/01/12 07:05:42;;;;;;;7.13;5.37;;;;;;;;;;5009718;28;20241;-67
2022/01/12 07:08:14;;;;;;;6.87;5.37;;;;;;;;;;5010183;28;20227;-67
2022/01/12 07:10:44;;;;;;;7.80;5.30;;;;;;;;;;5025185;28;20199;-67
2022/01/12 07:13:15;;;;;;;7.20;5.13;;;;;;;;;;5005106;28;20230;-66
2022/01/12 07:15:47;;;;;;;9.07;5.57;;;;;;;;;;5027481;28;20239;-66
2022/01/12 07:18:25;;;;;;;9.40;5.73;;;;;;;;;;5018463;28;20222;-66
2022/01/12 07:20:58;;;;;;;6.77;6.07;;;;;;;;;;5026190;28;20329;-66
2022/01/12 07:23:27;;;;;;;7.47;5.97;;;;;;;;;;5025685;28;20199;-66
2022/01/12 07:26:06;;;;;;;6.03;5.20;;;;;;;;;;5031189;28;20230;-67
2022/01/12 07:28:43;;;;;;;9.27;5.57;;;;;;;;;;5024229;28;20203;-66
2022/01/12 07:31:13;;;;;;;7.57;5.80;;;;;;;;;;5030645;28;20238;-66
2022/01/12 07:33:43;;;;;;;7.30;5.77;;;;;;;;;;5020885;28;20215;-66
2022/01/12 07:36:16;;;;;;;6.47;5.43;;;;;;;;;;5027214;28;20179;-66
2022/01/12 07:38:48;;;;;;;8.93;5.33;;;;;;;;;;5022954;28;20223;-67
2022/01/12 07:41:18;;;;;;;10.93;6.40;;;;;;;;;;5017529;28;20196;-68
2022/01/12 07:43:48;;;;;;;14.83;6.23;;;;;;;;;;5020283;28;20202;-65
2022/01/12 07:46:19;;;;;;;17.03;7.20;;;;;;;;;;5024285;28;20194;-65
2022/01/12 07:48:51;;;;;;;8.70;6.07;;;;;;;;;;5022876;28;20814;-65
2022/01/12 07:51:21;;;;;;;13.60;5.27;;;;;;;;;;5003970;28;20640;-67
2022/01/12 07:53:54;;;;;;;12.00;5.83;;;;;;;;;;5022797;28;20227;-67
2022/01/12 07:56:28;;;;;;;11.43;5.63;;;;;;;;;;5022240;28;20203;-66
2022/01/12 07:58:58;;;;;;;7.70;5.63;;;;;;;;;;5025382;28;20198;-67
2022/01/12 08:01:28;;;;;;;10.43;5.27;;;;;;;;;;5026134;28;20222;-67
2022/01/12 08:03:59;;;;;;;8.40;5.20;;;;;;;;;;5024680;28;20621;-67
2022/01/12 08:06:31;;;;;;;10.37;5.30;;;;;;;;;;5026021;28;20275;-66
2022/01/12 08:09:07;;;;;;;8.17;5.10;;;;;;;;;;5022904;28;20553;-66
2022/01/12 08:11:50;;;;;;;10.23;5.47;;;;;;;;;;5025628;28;20202;-67
2022/01/12 08:14:20;;;;;;;7.57;5.03;;;;;;;;;;5017362;28;20262;-67
2022/01/12 08:17:04;;;;;;;6.37;4.43;;;;;;;;;;5021646;28;20203;-67
2022/01/12 08:19:37;;;;;;;8.03;5.17;;;;;;;;;;5023917;28;20195;-68
2022/01/12 08:22:07;;;;;;;8.73;5.30;;;;;;;;;;5023824;28;20215;-67
2022/01/12 08:24:50;;;;;;;8.23;4.87;;;;;;;;;;5023948;28;20220;-65
2022/01/12 08:27:22;;;;;;;8.93;5.33;;;;;;;;;;5018071;28;20234;-64
2022/01/12 08:29:58;;;;;;;7.43;5.07;;;;;;;;;;5007579;28;20191;-65
2022/01/12 08:32:30;;;;;;;6.17;5.17;;;;;;;;;;5024953;28;20202;-65
2022/01/12 08:35:00;;;;;;;6.10;4.67;;;;;;;;;;5006216;28;20241;-67
2022/01/12 08:37:31;;;;;;;6.20;4.67;;;;;;;;;;5022902;28;20224;-67
2022/01/12 08:40:07;;;;;;;9.97;4.70;;;;;;;;;;5016423;28;20286;-66
2022/01/12 08:42:39;;;;;;;8.07;5.10;;;;;;;;;;5007191;28;20650;-67
2022/01/12 08:45:09;;;;;;;5.53;4.70;;;;;;;;;;5019000;28;20195;-65
2022/01/12 08:47:38;;;;;;;7.13;4.50;;;;;;;;;;5004153;28;20203;-65
2022/01/12 08:50:09;;;;;;;7.20;5.17;;;;;;;;;;5005877;28;20219;-66
2022/01/12 08:52:46;;;;;;;5.90;4.50;;;;;;;;;;5008837;28;20207;-66
2022/01/12 08:55:20;;;;;;;6.27;5.10;;;;;;;;;;5018508;28;20215;-69
2022/01/12 08:57:58;;;;;;;7.50;5.17;;;;;;;;;;5018661;28;20217;-67
2022/01/12 09:00:36;;;;;;;6.40;4.80;;;;;;;;;;5023728;28;20217;-65
2022/01/12 09:03:06;;;;;;;6.00;4.70;;;;;;;;;;5028390;28;20215;-65
2022/01/12 09:05:40;;;;;;;6.67;5.27;;;;;;;;;;5023137;28;20202;-64
2022/01/12 09:08:12;;;;;;;6.33;4.73;;;;;;;;;;5014681;28;20921;-65
2022/01/12 09:10:45;;;;;;;6.30;4.53;;;;;;;;;;5025509;28;20305;-68
2022/01/12 09:13:20;;;;;;;6.60;4.90;;;;;;;;;;5008054;28;20226;-68
2022/01/12 09:15:52;;;;;;;8.00;5.20;;;;;;;;;;5022919;28;20237;-67
2022/01/12 09:18:39;;;;;;;6.17;4.77;;;;;;;;;;5025570;28;20207;-68
2022/01/12 09:21:15;;;;;;;10.23;4.70;;;;;;;;;;5023201;28;20235;-67
2022/01/12 09:23:45;;;;;;;5.70;4.70;;;;;;;;;;5039088;28;20306;-66
2022/01/12 09:26:21;;;;;;;5.67;4.50;;;;;;;;;;5020754;28;20287;-66
2022/01/12 09:28:53;;;;;;;5.67;4.70;;;;;;;;;;5024431;28;20197;-69
2022/01/12 09:31:23;;;;;;;6.63;4.60;;;;;;;;;;5020471;28;20216;-66
2022/01/12 09:33:53;;;;;;;5.33;4.73;;;;;;;;;;5008228;28;20234;-69
2022/01/12 09:36:24;;;;;;;6.97;4.87;;;;;;;;;;5021519;28;20915;-70
2022/01/12 09:38:57;;;;;;;5.83;4.40;;;;;;;;;;5018434;28;20276;-70
2022/01/12 09:41:27;;;;;;;4.97;4.47;;;;;;;;;;5012424;28;20206;-70
2022/01/12 09:44:01;;;;;;;5.77;4.63;;;;;;;;;;5041166;28;20201;-65
2022/01/12 09:46:41;;;;;;;6.10;5.10;;;;;;;;;;5024714;28;20237;-69
2022/01/12 09:49:12;;;;;;;4.60;4.20;;;;;;;;;;5007132;28;20212;-68
2022/01/12 09:51:41;;;;;;;6.53;4.93;;;;;;;;;;5026677;28;20217;-67
2022/01/12 09:54:12;;;;;;;5.20;4.37;;;;;;;;;;5026779;28;20219;-67
2022/01/12 09:56:42;;;;;;;4.87;4.37;;;;;;;;;;5024791;28;20207;-68
2022/01/12 09:59:13;;;;;;;5.63;4.50;;;;;;;;;;5025417;28;20198;-67
2022/01/12 10:01:47;;;;;;;5.17;4.67;;;;;;;;;;5034919;28;20201;-67
2022/01/12 10:04:25;;;;;;;4.87;4.40;;;;;;;;;;5032500;28;20213;-67
2022/01/12 10:07:06;;;;;;;4.83;4.30;;;;;;;;;;5026763;28;20226;-65
2022/01/12 10:09:44;;;;;;;6.30;4.80;;;;;;;;;;5025060;28;20210;-65
2022/01/12 10:12:24;;;;;;;5.50;5.00;;;;;;;;;;5027566;28;20203;-65
2022/01/12 10:14:59;;;;;;;6.03;4.80;;;;;;;;;;5023749;28;20230;-66
2022/01/12 10:17:38;;;;;;;5.03;4.53;;;;;;;;;;5025167;28;20207;-66
2022/01/12 10:20:13;;;;;;;5.27;4.60;;;;;;;;;;5027606;28;20642;-67
2022/01/12 10:23:09;;;;;;;8.97;6.80;;;;;;;;;;5020349;28;20210;-67
2022/01/12 10:25:45;;;;;;;6.93;6.17;;;;;;;;;;5015661;28;20207;-68
2022/01/12 10:28:25;;;;;;;7.43;6.60;;;;;;;;;;5035224;28;20199;-69
2022/01/12 10:31:20;;;;;;;9.27;5.83;;;;;;;;;;5026578;28;20754;-69
2022/01/12 10:34:03;;;;;;;9.17;5.77;;;;;;;;;;5028942;28;20226;-69
2022/01/12 10:36:42;;;;;;;5.63;4.97;;;;;;;;;;5024403;28;20203;-69
2022/01/12 10:39:17;;;;;;;5.73;5.17;;;;;;;;;;5023412;28;20209;-69
2022/01/12 10:42:03;;;;;;;5.83;4.87;;;;;;;;;;5027359;28;20205;-68
2022/01/12 10:44:42;;;;;;;7.43;5.43;;;;;;;;;;5025564;28;20253;-70
2022/01/12 10:47:18;;;;;;;5.87;5.00;;;;;;;;;;5024746;28;20203;-69
2022/01/12 10:50:08;;;;;;;5.27;4.63;;;;;;;;;;5023833;28;20230;-69
2022/01/12 10:52:56;;;;;;;5.43;4.93;;;;;;;;;;5026905;28;20206;-70
2022/01/12 10:55:35;;;;;;;6.10;4.73;;;;;;;;;;5029099;28;20229;-69
2022/01/12 10:58:08;;;;;;;5.37;4.70;;;;;;;;;;5024979;28;20191;-69
2022/01/12 11:00:41;;;;;;;5.30;4.80;;;;;;;;;;5025830;28;20194;-68
2022/01/12 11:03:09;;;;;;;5.27;4.77;;;;;;;;;;5023442;28;20559;-68
2022/01/12 11:05:40;;;;;;;7.00;5.60;;;;;;;;;;5026689;28;20203;-67
2022/01/12 11:08:12;;;;;;;6.33;5.73;;;;;;;;;;5025866;28;20629;-67
2022/01/12 11:10:43;;;;;;;7.27;5.97;;;;;;;;;;5025942;28;20198;-67
2022/01/12 11:13:15;;;;;;;6.73;6.10;;;;;;;;;;5021233;28;20218;-67
2022/01/12 11:15:47;;;;;;;6.80;5.83;;;;;;;;;;5025249;28;20231;-67
2022/01/12 11:18:20;;;;;;;7.90;6.50;;;;;;;;;;5026256;28;20210;-67
2022/01/12 11:20:52;;;;;;;7.00;5.80;;;;;;;;;;5025038;28;20207;-67
2022/01/12 11:23:33;;;;;;;6.50;5.90;;;;;;;;;;5029948;28;20195;-67
2022/01/12 11:26:17;;;;;;;6.63;5.93;;;;;;;;;;5023164;28;20223;-67
2022/01/12 11:28:51;;;;;;;6.43;5.60;;;;;;;;;;5029437;28;20210;-67
2022/01/12 11:31:44;;;;;;;7.17;6.47;;;;;;;;;;5008950;28;20210;-68
2022/01/12 11:34:22;;;;;;;8.00;6.97;;;;;;;;;;5022191;28;20436;-66
2022/01/12 11:36:51;;;;;;;6.23;5.53;;;;;;;;;;5022048;28;20206;-67
2022/01/12 11:39:23;;;;;;;6.77;6.00;;;;;;;;;;5023379;28;20222;-67
2022/01/12 11:41:59;;;;;;;6.13;5.53;;;;;;;;;;5024387;28;20207;-67
2022/01/12 11:44:36;;;;;;;5.40;4.90;;;;;;;;;;5012082;28;20633;-67
2022/01/12 11:47:05;;;;;;;5.27;4.77;;;;;;;;;;5018626;28;20210;-66
2022/01/12 11:49:43;;;;;;;5.20;4.67;;;;;;;;;;5021284;28;20222;-66
2022/01/12 11:52:26;;;;;;;5.50;5.00;;;;;;;;;;5023701;28;20202;-66
2022/01/12 11:55:09;;;;;;;4.33;3.80;;;;;;;;;;5026905;28;20218;-66
2022/01/12 11:58:03;;;;;;;4.83;4.40;;;;;;;;;;5006752;28;20203;-67
2022/01/12 12:00:41;;;;;;;4.60;4.20;;;;;;;;;;5016111;28;20207;-69
2022/01/12 12:03:21;;;;;;;8.30;4.37;;;;;;;;;;5018570;28;20213;-67
2022/01/12 12:05:54;;;;;;;5.30;4.50;;;;;;;;;;5010191;28;20256;-66
2022/01/12 12:08:25;;;;;;;4.30;3.90;;;;;;;;;;5024997;28;20660;-65
2022/01/12 12:10:55;;;;;;;4.13;3.73;;;;;;;;;;5011697;28;20199;-66
2022/01/12 12:13:27;;;;;;;4.37;3.97;;;;;;;;;;5026062;28;20227;-67
2022/01/12 12:15:56;;;;;;;4.27;3.87;;;;;;;;;;5040676;28;20226;-66
2022/01/12 12:18:41;;;;;;;4.90;4.50;;;;;;;;;;5020319;28;20201;-66
2022/01/12 12:21:11;;;;;;;3.97;3.63;;;;;;;;;;5022975;28;20198;-65
2022/01/12 12:23:41;;;;;;;3.87;3.57;;;;;;;;;;5024442;28;20206;-66
2022/01/12 12:26:14;;;;;;;4.60;3.70;;;;;;;;;;5024950;28;20278;-66
2022/01/12 12:28:56;;;;;;;3.93;3.60;;;;;;;;;;5028189;28;20207;-66
2022/01/12 12:31:30;;;;;;;4.10;3.70;;;;;;;;;;5008872;28;20190;-68
2022/01/12 12:34:26;;;;;;;6.33;3.50;;;;;;;;;;5027003;28;20684;-68
2022/01/12 12:37:07;;;;;;;3.60;3.30;;;;;;;;;;5035662;28;20198;-67
2022/01/12 12:39:38;;;;;;;3.80;3.50;;;;;;;;;;5009013;28;20268;-67
2022/01/12 12:42:29;;;;;;;3.90;3.33;;;;;;;;;;5022088;28;20606;-67
2022/01/12 12:45:02;;;;;;;3.90;3.50;;;;;;;;;;5026058;28;20198;-67
2022/01/12 12:47:33;;;;;;;6.07;3.60;;;;;;;;;;5026069;28;20206;-69
2022/01/12 12:50:15;;;;;;;3.43;3.03;;;;;;;;;;5020220;28;20257;-67
2022/01/12 12:52:46;;;;;;;3.80;3.47;;;;;;;;;;5032354;28;20516;-67
2022/01/12 12:55:17;;;;;;;3.60;3.30;;;;;;;;;;5022259;28;20218;-68
2022/01/12 12:57:51;;;;;;;3.47;3.17;;;;;;;;;;5027391;28;20191;-67
2022/01/12 13:00:21;;;;;;;3.57;3.03;;;;;;;;;;5025715;28;20191;-67
2022/01/12 13:02:56;;;;;;;3.83;3.43;;;;;;;;;;5019445;28;20195;-66
2022/01/12 13:05:35;;;;;;;3.90;2.57;;;;;;;;;;5006359;28;20239;-66
2022/01/12 13:08:06;;;;;;;3.30;3.00;;;;;;;;;;5027516;28;20206;-66
2022/01/12 13:10:40;;;;;;;3.53;3.23;;;;;;;;;;5012367;28;20677;-67
2022/01/12 13:13:10;;;;;;;3.37;3.07;;;;;;;;;;5008807;28;20211;-67
2022/01/12 13:15:48;;;;;;;3.17;2.97;;;;;;;;;;5007145;28;20300;-68
2022/01/12 13:18:22;;;;;;;3.53;2.97;;;;;;;;;;5026887;28;20183;-67
2022/01/12 13:21:08;;;;;;;3.90;3.60;;;;;;;;;;5027287;28;20199;-67
2022/01/12 13:23:41;;;;;;;2.93;2.73;;;;;;;;;;5006829;28;20320;-67
2022/01/12 13:26:15;;;;;;;4.50;3.60;;;;;;;;;;5023990;28;20203;-67
2022/01/12 13:28:47;;;;;;;3.70;3.17;;;;;;;;;;5034706;28;20573;-68
2022/01/12 13:31:21;;;;;;;4.63;3.47;;;;;;;;;;5027196;28;20230;-68
2022/01/12 13:33:54;;;;;;;3.97;3.20;;;;;;;;;;5010094;28;20262;-69
2022/01/12 13:36:30;;;;;;;4.60;3.50;;;;;;;;;;4996718;28;20549;-65
2022/01/12 13:39:11;;;;;;;3.70;3.40;;;;;;;;;;5024935;28;20209;-66
2022/01/12 13:41:41;;;;;;;4.63;4.13;;;;;;;;;;5026506;28;20691;-65
2022/01/12 13:44:17;;;;;;;4.53;4.07;;;;;;;;;;5010498;28;20555;-64
2022/01/12 13:47:22;;;;;;;6.10;4.33;;;;;;;;;;5039528;28;20568;-65
2022/01/12 13:50:09;;;;;;;5.20;4.07;;;;;;;;;;5014304;28;20211;-65
2022/01/12 13:52:54;;;;;;;7.97;4.70;;;;;;;;;;5028084;28;20211;-65
2022/01/12 13:55:26;;;;;;;10.17;6.67;;;;;;;;;;5025705;28;20340;-68
2022/01/12 13:58:09;;;;;;;9.50;6.57;;;;;;;;;;5024815;28;20202;-68
2022/01/12 14:00:40;;;;;;;8.20;6.10;;;;;;;;;;5020547;28;20215;-68
2022/01/12 14:03:23;;;;;;;7.60;6.70;;;;;;;;;;5025656;28;20375;-68
2022/01/12 14:05:59;;;;;;;8.23;6.20;;;;;;;;;;5013201;28;20225;-68
2022/01/12 14:08:41;;;;;;;6.93;5.87;;;;;;;;;;5026308;28;20233;-68
2022/01/12 14:11:13;;;;;;;7.57;6.17;;;;;;;;;;5008689;28;20213;-68
2022/01/12 14:13:43;;;;;;;7.93;7.00;;;;;;;;;;5025003;28;20704;-69
2022/01/12 14:16:13;;;;;;;7.10;5.53;;;;;;;;;;5016577;28;20694;-69
2022/01/12 14:18:43;;;;;;;7.23;6.17;;;;;;;;;;4992584;28;20203;-65
2022/01/12 14:21:22;;;;;;;9.33;6.17;;;;;;;;;;4995504;28;20192;-66
2022/01/12 14:23:57;;;;;;;6.13;5.50;;;;;;;;;;5006088;28;20196;-66
2022/01/12 14:26:30;;;;;;;6.60;5.53;;;;;;;;;;4998219;28;20218;-66
2022/01/12 14:28:59;;;;;;;7.37;6.00;;;;;;;;;;5003858;28;20537;-66
2022/01/12 14:31:26;;;;;;;6.80;6.10;;;;;;;;;;5000052;28;20571;-65
2022/01/12 14:33:59;;;;;;;7.53;6.60;;;;;;;;;;5014850;28;20336;-65
2022/01/12 14:36:31;;;;;;;8.20;6.60;;;;;;;;;;4994474;28;20211;-65
2022/01/12 14:39:01;;;;;;;7.53;6.13;;;;;;;;;;4996466;28;20223;-65
2022/01/12 14:41:33;;;;;;;7.10;6.00;;;;;;;;;;4994262;28;20613;-66
2022/01/12 14:44:05;;;;;;;7.03;6.33;;;;;;;;;;5005422;28;20237;-66
2022/01/12 14:46:37;;;;;;;7.93;6.33;;;;;;;;;;5005907;28;20203;-65
2022/01/12 14:49:10;;;;;;;7.30;6.50;;;;;;;;;;4998074;28;20220;-65
2022/01/12 14:51:41;;;;;;;7.93;6.47;;;;;;;;;;5004283;28;20196;-66
2022/01/12 14:54:35;;;;;;;7.10;6.17;;;;;;;;;;5001614;28;20673;-65
2022/01/12 14:57:03;;;;;;;6.57;5.93;;;;;;;;;;4986124;28;20200;-65
2022/01/12 14:59:34;;;;;;;6.30;5.67;;;;;;;;;;5002655;28;20202;-65
2022/01/12 15:02:04;;;;;;;7.83;6.03;;;;;;;;;;4987251;28;20206;-65
2022/01/12 15:04:37;;;;;;;7.93;6.33;;;;;;;;;;5003259;28;20628;-65
2022/01/12 15:07:06;;;;;;;6.93;5.67;;;;;;;;;;4987766;28;20208;-65
2022/01/12 15:09:38;;;;;;;7.50;6.00;;;;;;;;;;5004701;28;20791;-65
2022/01/12 15:12:13;;;;;;;6.97;6.23;;;;;;;;;;5017690;28;20212;-65
2022/01/12 15:14:58;;;;;;;6.60;6.00;;;;;;;;;;5000339;28;20594;-65
2022/01/12 15:17:32;;;;;;;6.53;5.93;;;;;;;;;;5024211;28;20249;-66
2022/01/12 15:20:07;;;;;;;7.17;6.47;;;;;;;;;;5004374;28;20705;-66
2022/01/12 15:22:44;;;;;;;7.73;6.40;;;;;;;;;;5025670;28;20201;-68
2022/01/12 15:25:17;;;;;;;6.97;6.27;;;;;;;;;;5019761;28;20655;-66
2022/01/12 15:27:50;;;;;;;6.90;6.20;;;;;;;;;;5011768;28;20199;-65
2022/01/12 15:30:21;;;;;;;7.10;6.33;;;;;;;;;;5010472;28;20238;-65
2022/01/12 15:32:53;;;;;;;6.70;6.00;;;;;;;;;;5027769;28;20296;-65
2022/01/12 15:35:25;;;;;;;7.20;6.50;;;;;;;;;;5021165;28;20222;-68
2022/01/12 15:37:57;;;;;;;6.90;6.17;;;;;;;;;;5016806;28;20231;-68
2022/01/12 15:40:27;;;;;;;9.53;6.27;;;;;;;;;;5012494;28;20210;-65
2022/01/12 15:43:09;;;;;;;6.70;5.77;;;;;;;;;;5023412;28;20190;-65
2022/01/12 15:45:56;;;;;;;5.87;5.27;;;;;;;;;;5029526;28;20205;-66
2022/01/12 15:48:40;;;;;;;5.80;5.23;;;;;;;;;;5023024;28;20277;-67
2022/01/12 15:51:10;;;;;;;7.50;5.63;;;;;;;;;;5023908;28;20211;-65
2022/01/12 15:53:40;;;;;;;6.33;5.03;;;;;;;;;;5023275;28;20538;-64
2022/01/12 15:56:16;;;;;;;7.03;4.80;;;;;;;;;;5032228;28;20219;-65
2022/01/12 15:58:50;;;;;;;7.00;5.07;;;;;;;;;;5027356;28;20207;-67
2022/01/12 16:01:23;;;;;;;4.90;4.40;;;;;;;;;;5031580;28;20237;-65
2022/01/12 16:03:53;;;;;;;6.67;5.00;;;;;;;;;;5017829;28;20245;-66
2022/01/12 16:06:27;;;;;;;5.60;4.97;;;;;;;;;;5032710;28;20305;-64
2022/01/12 16:08:59;;;;;;;6.83;4.80;;;;;;;;;;5025740;28;20209;-65
2022/01/12 16:11:29;;;;;;;6.57;4.63;;;;;;;;;;5025698;28;20269;-64
2022/01/12 16:14:00;;;;;;;6.87;4.80;;;;;;;;;;5030085;28;20211;-67
2022/01/12 16:16:32;;;;;;;5.20;4.70;;;;;;;;;;5007824;28;20234;-67
2022/01/12 16:19:08;;;;;;;5.17;4.43;;;;;;;;;;5020533;28;20215;-67
2022/01/12 16:21:46;;;;;;;5.53;4.70;;;;;;;;;;5010168;28;20766;-67
2022/01/12 16:24:15;;;;;;;5.30;4.53;;;;;;;;;;5025873;28;20194;-67
2022/01/12 16:26:44;;;;;;;5.13;4.63;;;;;;;;;;5036591;28;20210;-67
2022/01/12 16:29:15;;;;;;;4.40;4.00;;;;;;;;;;5020257;28;20215;-69
2022/01/12 16:31:45;;;;;;;4.40;4.00;;;;;;;;;;5024854;28;20810;-69
2022/01/12 16:34:17;;;;;;;4.27;3.87;;;;;;;;;;5026468;28;20210;-68
2022/01/12 16:36:47;;;;;;;4.70;3.93;;;;;;;;;;4994037;28;20215;-68
2022/01/12 16:39:20;;;;;;;4.40;4.00;;;;;;;;;;5014068;28;20562;-69
2022/01/12 16:41:49;;;;;;;4.57;4.17;;;;;;;;;;5023424;28;20218;-67